Gapville, Kentucky
Current Conditions -  °F | °C
As of 6:35 AM on Saturday 20 Dec 2014 (Local Time) from KSJS Reporting Station
Overcast Overcast  
Wind Chill: 22°   Ceiling: 10000
Heat Index: 27°   Visibility: 10mi
Dew Point: 24°   Wind: 5mph
Humidity: 87%   Direction: 50°NE
Pressure: 30.23"   Gusts: NA
Location:  37.63°N, 82.96°W
Report Text: KSJS 201135Z AUTO 05004KT 10SM SCT070 SCT080 OVC100 M03/M04 A3023 RMK AO2 T10261045
Loading
Personal Weather Stations






























Interactive Weather Map New forecast layout! Learn more

10-Day Weather Forecast

Advertisements
Track Severe Weather on mobile